Time;durP1;ratioP1;P1;durP2;ratioP2;P2;SDS_P1;SDS_P2;PMS_P1;PMS_P2;Temp;Humidity;BMP_temperature;BMP_pressure;BME280_temperature;BME280_humidity;BME280_pressure;Samples;Min_cycle;Max_cycle;Signal;HPM_P1;HPM_P2
2021/05/05 00:00:56;;;;;;;1.07;0.90;;;;;;;;;;5057943;28;20188;-61
2021/05/05 00:03:22;;;;;;;2.17;1.10;;;;;;;;;;5058452;28;20191;-61
2021/05/05 00:05:48;;;;;;;1.93;1.00;;;;;;;;;;5057400;28;20386;-61
2021/05/05 00:08:14;;;;;;;1.97;0.90;;;;;;;;;;5059169;28;20184;-61
2021/05/05 00:10:40;;;;;;;2.57;1.30;;;;;;;;;;5050034;28;20204;-60
2021/05/05 00:13:06;;;;;;;1.60;0.80;;;;;;;;;;5066107;28;20187;-60
2021/05/05 00:15:32;;;;;;;1.43;1.00;;;;;;;;;;5060181;28;20188;-60
2021/05/05 00:17:58;;;;;;;1.53;1.00;;;;;;;;;;5063498;28;20548;-60
2021/05/05 00:20:24;;;;;;;1.33;1.10;;;;;;;;;;5069259;28;20639;-60
2021/05/05 00:22:51;;;;;;;1.30;1.03;;;;;;;;;;5060051;28;20184;-59
2021/05/05 00:25:17;;;;;;;3.17;1.43;;;;;;;;;;5056128;28;20181;-60
2021/05/05 00:27:43;;;;;;;2.40;1.40;;;;;;;;;;5067276;28;20193;-60
2021/05/05 00:30:10;;;;;;;1.10;1.00;;;;;;;;;;5068934;28;20523;-59
2021/05/05 00:32:37;;;;;;;1.30;1.00;;;;;;;;;;5064486;28;20220;-60
2021/05/05 00:35:03;;;;;;;1.20;1.10;;;;;;;;;;5055434;28;20548;-61
2021/05/05 00:37:29;;;;;;;2.27;1.20;;;;;;;;;;5051061;28;20280;-59
2021/05/05 00:39:56;;;;;;;1.83;1.27;;;;;;;;;;5051522;28;20189;-58
2021/05/05 00:42:22;;;;;;;0.90;0.90;;;;;;;;;;5052552;28;20204;-60
2021/05/05 00:44:48;;;;;;;1.53;1.07;;;;;;;;;;5066671;28;20256;-60
2021/05/05 00:47:16;;;;;;;1.47;1.10;;;;;;;;;;5060498;28;20180;-61
2021/05/05 00:49:42;;;;;;;1.00;0.97;;;;;;;;;;5058442;28;20207;-60
2021/05/05 00:52:08;;;;;;;1.30;1.00;;;;;;;;;;5068042;28;20195;-60
2021/05/05 00:54:34;;;;;;;5.00;1.93;;;;;;;;;;5069905;28;20275;-59
2021/05/05 00:57:01;;;;;;;3.23;1.80;;;;;;;;;;5064472;28;20232;-60
2021/05/05 00:59:27;;;;;;;2.40;1.60;;;;;;;;;;5067733;28;20186;-60
2021/05/05 01:01:53;;;;;;;1.43;1.30;;;;;;;;;;5060777;28;20173;-60
2021/05/05 01:04:20;;;;;;;1.97;1.50;;;;;;;;;;5059508;28;20732;-61
2021/05/05 01:06:47;;;;;;;1.80;1.43;;;;;;;;;;5054885;28;20177;-59
2021/05/05 01:09:13;;;;;;;1.83;1.73;;;;;;;;;;5058532;28;20268;-59
2021/05/05 01:11:39;;;;;;;5.60;1.40;;;;;;;;;;5062697;28;20208;-60
2021/05/05 01:14:05;;;;;;;1.77;1.27;;;;;;;;;;5067738;28;20192;-61
2021/05/05 01:16:31;;;;;;;2.13;1.60;;;;;;;;;;5055675;28;20177;-59
2021/05/05 01:18:57;;;;;;;2.67;1.63;;;;;;;;;;5059988;28;20177;-61
2021/05/05 01:21:23;;;;;;;3.03;1.60;;;;;;;;;;5072313;28;20709;-60
2021/05/05 01:23:49;;;;;;;4.13;1.77;;;;;;;;;;5061628;28;20178;-60
2021/05/05 01:26:15;;;;;;;2.03;1.40;;;;;;;;;;5066470;28;20192;-62
2021/05/05 01:28:44;;;;;;;1.97;1.30;;;;;;;;;;5070279;28;20593;-60
2021/05/05 01:31:12;;;;;;;2.30;1.30;;;;;;;;;;5056822;28;20666;-59
2021/05/05 01:33:38;;;;;;;1.83;1.50;;;;;;;;;;5065943;28;20178;-60
2021/05/05 01:36:05;;;;;;;3.47;1.23;;;;;;;;;;5058616;28;20181;-59
2021/05/05 01:38:32;;;;;;;2.37;1.43;;;;;;;;;;5062159;28;20181;-59
2021/05/05 01:40:58;;;;;;;1.87;1.47;;;;;;;;;;5053528;28;20179;-60
2021/05/05 01:43:24;;;;;;;3.33;1.40;;;;;;;;;;5062150;28;20259;-59
2021/05/05 01:45:50;;;;;;;3.77;1.37;;;;;;;;;;5069162;28;20180;-59
2021/05/05 01:48:17;;;;;;;2.33;1.30;;;;;;;;;;5059264;28;20189;-62
2021/05/05 01:50:43;;;;;;;3.53;1.90;;;;;;;;;;5069495;28;20196;-60
2021/05/05 01:53:09;;;;;;;2.67;1.80;;;;;;;;;;5056655;28;20181;-60
2021/05/05 01:55:35;;;;;;;2.17;1.43;;;;;;;;;;5055535;28;20762;-62
2021/05/05 01:58:01;;;;;;;3.43;1.50;;;;;;;;;;5054832;28;20184;-61
2021/05/05 02:00:29;;;;;;;3.93;1.70;;;;;;;;;;5069101;28;20177;-60
2021/05/05 02:02:55;;;;;;;1.90;1.60;;;;;;;;;;5056080;28;20195;-63
2021/05/05 02:05:21;;;;;;;3.47;1.90;;;;;;;;;;5054198;28;20181;-60
2021/05/05 02:07:47;;;;;;;4.90;1.93;;;;;;;;;;5060998;28;20620;-60
2021/05/05 02:10:14;;;;;;;3.33;2.27;;;;;;;;;;5058071;28;20188;-60
2021/05/05 02:12:41;;;;;;;2.40;1.80;;;;;;;;;;5070677;28;20283;-60
2021/05/05 02:15:08;;;;;;;3.90;1.90;;;;;;;;;;5053849;28;20188;-61
2021/05/05 02:17:36;;;;;;;4.20;1.93;;;;;;;;;;5059042;28;20189;-61
2021/05/05 02:20:02;;;;;;;4.47;2.43;;;;;;;;;;5054130;28;20181;-61
2021/05/05 02:22:28;;;;;;;3.40;2.30;;;;;;;;;;5061648;28;20209;-61
2021/05/05 02:24:54;;;;;;;2.77;2.47;;;;;;;;;;5066879;28;20219;-61
2021/05/05 02:27:20;;;;;;;3.57;2.13;;;;;;;;;;5065976;28;20271;-60
2021/05/05 02:29:46;;;;;;;3.93;2.73;;;;;;;;;;5062932;28;20267;-60
2021/05/05 02:32:13;;;;;;;4.70;2.60;;;;;;;;;;5060169;28;20718;-62
2021/05/05 02:34:39;;;;;;;3.73;2.53;;;;;;;;;;5059893;28;20181;-62
2021/05/05 02:37:06;;;;;;;4.30;2.60;;;;;;;;;;5057343;28;20191;-61
2021/05/05 02:39:32;;;;;;;4.97;2.60;;;;;;;;;;5071824;28;20555;-62
2021/05/05 02:41:58;;;;;;;4.07;2.43;;;;;;;;;;5060805;28;20197;-60
2021/05/05 02:44:24;;;;;;;4.97;2.30;;;;;;;;;;5061473;28;20213;-60
2021/05/05 02:46:50;;;;;;;4.70;2.07;;;;;;;;;;5059011;28;20197;-60
2021/05/05 02:49:16;;;;;;;2.87;1.93;;;;;;;;;;5065311;28;20212;-60
2021/05/05 02:51:43;;;;;;;4.03;2.57;;;;;;;;;;5061826;28;20254;-63
2021/05/05 02:54:09;;;;;;;4.47;2.30;;;;;;;;;;5066735;28;20180;-59
2021/05/05 02:56:35;;;;;;;2.60;2.30;;;;;;;;;;5059828;28;20177;-63
2021/05/05 02:59:01;;;;;;;4.17;2.20;;;;;;;;;;5064333;28;20181;-60
2021/05/05 03:01:27;;;;;;;3.10;2.20;;;;;;;;;;5056168;28;20176;-60
2021/05/05 03:03:53;;;;;;;2.90;2.30;;;;;;;;;;5059365;28;20184;-62
2021/05/05 03:06:19;;;;;;;4.23;2.20;;;;;;;;;;5055500;28;20649;-60
2021/05/05 03:08:45;;;;;;;3.73;2.03;;;;;;;;;;5062093;28;20184;-61
2021/05/05 03:11:11;;;;;;;2.17;1.83;;;;;;;;;;5068595;28;20239;-60
2021/05/05 03:13:38;;;;;;;2.73;2.10;;;;;;;;;;5066942;28;20602;-62
2021/05/05 03:16:05;;;;;;;2.80;1.80;;;;;;;;;;5051760;28;20234;-60
2021/05/05 03:18:31;;;;;;;2.87;1.90;;;;;;;;;;5060450;28;20334;-60
2021/05/05 03:20:58;;;;;;;2.10;1.90;;;;;;;;;;5060464;28;20184;-61
2021/05/05 03:23:24;;;;;;;2.63;1.73;;;;;;;;;;5062685;28;20179;-61
2021/05/05 03:25:50;;;;;;;4.27;1.93;;;;;;;;;;5050820;28;20260;-60
2021/05/05 03:28:16;;;;;;;3.00;1.90;;;;;;;;;;5059120;28;20189;-61
2021/05/05 03:30:42;;;;;;;2.70;1.80;;;;;;;;;;5058558;28;20647;-61
2021/05/05 03:33:08;;;;;;;4.50;1.87;;;;;;;;;;5057094;28;20623;-60
2021/05/05 03:35:34;;;;;;;4.03;1.83;;;;;;;;;;5051775;28;20176;-59
2021/05/05 03:38:01;;;;;;;2.77;2.03;;;;;;;;;;5059845;28;20256;-60
2021/05/05 03:40:28;;;;;;;2.20;1.97;;;;;;;;;;5058212;28;20195;-60
2021/05/05 03:42:55;;;;;;;1.77;1.63;;;;;;;;;;5053470;28;20192;-60
2021/05/05 03:45:21;;;;;;;2.23;1.70;;;;;;;;;;5050031;28;20282;-59
2021/05/05 03:47:47;;;;;;;1.77;1.60;;;;;;;;;;5056979;28;20664;-61
2021/05/05 03:50:13;;;;;;;4.00;2.07;;;;;;;;;;5068497;28;20299;-60
2021/05/05 03:52:39;;;;;;;2.10;1.90;;;;;;;;;;5066887;28;20204;-60
2021/05/05 03:55:05;;;;;;;3.57;2.20;;;;;;;;;;5060096;28;20176;-60
2021/05/05 03:57:32;;;;;;;2.70;2.00;;;;;;;;;;5064522;28;20287;-60
2021/05/05 03:59:58;;;;;;;3.40;2.23;;;;;;;;;;5065996;28;20226;-60
2021/05/05 04:02:24;;;;;;;3.43;2.00;;;;;;;;;;5057717;28;20225;-61
2021/05/05 04:04:50;;;;;;;2.27;2.07;;;;;;;;;;5057155;28;20177;-61
2021/05/05 04:07:16;;;;;;;2.40;2.00;;;;;;;;;;5050047;28;20250;-62
2021/05/05 04:09:43;;;;;;;3.80;1.90;;;;;;;;;;5052137;28;20188;-61
2021/05/05 04:12:09;;;;;;;2.87;2.40;;;;;;;;;;5053290;28;20212;-62
2021/05/05 04:14:35;;;;;;;2.70;2.20;;;;;;;;;;5052125;28;20234;-60
2021/05/05 04:17:01;;;;;;;4.27;3.13;;;;;;;;;;5047710;28;20176;-59
2021/05/05 04:19:27;;;;;;;5.20;2.03;;;;;;;;;;5061933;28;20569;-60
2021/05/05 04:21:53;;;;;;;3.30;2.30;;;;;;;;;;5058689;28;20195;-61
2021/05/05 04:24:20;;;;;;;3.83;2.20;;;;;;;;;;5063846;28;20189;-61
2021/05/05 04:26:47;;;;;;;3.37;2.10;;;;;;;;;;5048842;28;20190;-60
2021/05/05 04:29:13;;;;;;;2.53;2.33;;;;;;;;;;5054680;28;20639;-60
2021/05/05 04:31:39;;;;;;;4.03;2.43;;;;;;;;;;5056100;28;20267;-61
2021/05/05 04:34:05;;;;;;;3.97;3.33;;;;;;;;;;5067054;28;20191;-60
2021/05/05 04:36:31;;;;;;;2.50;2.30;;;;;;;;;;5050446;28;20221;-61
2021/05/05 04:38:57;;;;;;;2.60;2.30;;;;;;;;;;5055499;28;20252;-63
2021/05/05 04:41:23;;;;;;;4.23;2.23;;;;;;;;;;5061525;28;20496;-60
2021/05/05 04:43:49;;;;;;;4.37;2.97;;;;;;;;;;5059114;28;20280;-59
2021/05/05 04:46:16;;;;;;;3.17;2.27;;;;;;;;;;5056577;28;20173;-61
2021/05/05 04:48:43;;;;;;;3.30;2.97;;;;;;;;;;5060910;28;20267;-61
2021/05/05 04:51:09;;;;;;;3.30;2.63;;;;;;;;;;5052580;28;20208;-63
2021/05/05 04:53:35;;;;;;;4.20;2.70;;;;;;;;;;5053898;28;20176;-60
2021/05/05 04:56:01;;;;;;;3.90;3.07;;;;;;;;;;5051716;28;20690;-61
2021/05/05 04:58:27;;;;;;;3.90;2.90;;;;;;;;;;5060321;28;20245;-60
2021/05/05 05:00:53;;;;;;;3.47;3.17;;;;;;;;;;5059073;28;20184;-59
2021/05/05 05:03:19;;;;;;;3.50;3.03;;;;;;;;;;5067793;28;20184;-60
2021/05/05 05:05:45;;;;;;;5.47;4.13;;;;;;;;;;5052964;28;20200;-61
2021/05/05 05:08:11;;;;;;;5.33;3.43;;;;;;;;;;5058904;28;20219;-61
2021/05/05 05:10:37;;;;;;;3.67;2.90;;;;;;;;;;5053954;28;20205;-62
2021/05/05 05:13:03;;;;;;;3.60;2.60;;;;;;;;;;5052138;28;20631;-62
2021/05/05 05:15:29;;;;;;;4.93;2.53;;;;;;;;;;5067391;28;20184;-63
2021/05/05 05:17:55;;;;;;;3.07;2.30;;;;;;;;;;5068068;28;20291;-63
2021/05/05 05:20:21;;;;;;;5.30;2.50;;;;;;;;;;5067667;28;20690;-62
2021/05/05 05:22:48;;;;;;;4.23;2.07;;;;;;;;;;5069039;28;20651;-63
2021/05/05 05:25:14;;;;;;;3.87;2.10;;;;;;;;;;5052551;28;20223;-63
2021/05/05 05:27:40;;;;;;;4.77;2.00;;;;;;;;;;5058628;28;20574;-64
2021/05/05 05:30:10;;;;;;;5.47;2.63;;;;;;;;;;5055821;28;20213;-65
2021/05/05 05:32:36;;;;;;;5.37;3.37;;;;;;;;;;5050856;28;20359;-63
2021/05/05 05:35:03;;;;;;;4.80;3.63;;;;;;;;;;5068043;28;20213;-62
2021/05/05 05:37:29;;;;;;;7.23;3.77;;;;;;;;;;5062852;28;20723;-64
2021/05/05 05:39:55;;;;;;;5.73;3.93;;;;;;;;;;5060026;28;20209;-64
2021/05/05 05:42:21;;;;;;;5.90;5.30;;;;;;;;;;5067361;28;20175;-63
2021/05/05 05:44:47;;;;;;;7.70;5.60;;;;;;;;;;5059436;28;20182;-62
2021/05/05 05:47:13;;;;;;;7.47;5.63;;;;;;;;;;5071352;28;20185;-63
2021/05/05 05:49:39;;;;;;;6.17;5.57;;;;;;;;;;5058930;28;20415;-63
2021/05/05 05:52:05;;;;;;;7.80;4.97;;;;;;;;;;5056104;28;20297;-62
2021/05/05 05:54:32;;;;;;;6.03;5.43;;;;;;;;;;5069543;28;20195;-63
2021/05/05 05:56:58;;;;;;;5.90;4.73;;;;;;;;;;5072974;28;20893;-63
2021/05/05 05:59:24;;;;;;;6.23;5.63;;;;;;;;;;5064433;28;20206;-62
2021/05/05 06:01:50;;;;;;;4.70;4.30;;;;;;;;;;5068254;28;20216;-62
2021/05/05 06:04:19;;;;;;;5.23;4.73;;;;;;;;;;5065178;28;20184;-64
2021/05/05 06:06:45;;;;;;;5.87;5.30;;;;;;;;;;5067055;28;20241;-64
2021/05/05 06:09:11;;;;;;;4.77;4.37;;;;;;;;;;5063072;28;20192;-65
2021/05/05 06:11:37;;;;;;;6.27;5.33;;;;;;;;;;5069765;28;20666;-65
2021/05/05 06:14:04;;;;;;;6.13;5.53;;;;;;;;;;5061871;28;20209;-62
2021/05/05 06:16:31;;;;;;;6.90;5.50;;;;;;;;;;5072405;28;20176;-63
2021/05/05 06:18:57;;;;;;;5.97;5.40;;;;;;;;;;5067382;28;20187;-64
2021/05/05 06:21:23;;;;;;;6.57;5.53;;;;;;;;;;5063167;28;20186;-64
2021/05/05 06:23:50;;;;;;;6.00;4.63;;;;;;;;;;5070251;28;20180;-63
2021/05/05 06:26:16;;;;;;;5.30;4.00;;;;;;;;;;5069533;28;20176;-62
2021/05/05 06:28:42;;;;;;;5.00;3.97;;;;;;;;;;5071466;28;20624;-62
2021/05/05 06:31:08;;;;;;;5.10;4.60;;;;;;;;;;5060871;28;20216;-63
2021/05/05 06:33:34;;;;;;;5.13;4.60;;;;;;;;;;5059315;28;20498;-62
2021/05/05 06:36:00;;;;;;;5.30;4.80;;;;;;;;;;5033590;28;20180;-62
2021/05/05 06:38:26;;;;;;;5.60;4.60;;;;;;;;;;5042516;28;20176;-62
2021/05/05 06:40:53;;;;;;;5.73;4.30;;;;;;;;;;5030095;28;20165;-62
2021/05/05 06:43:19;;;;;;;5.40;4.80;;;;;;;;;;5054451;28;20210;-63
2021/05/05 06:45:45;;;;;;;3.63;3.30;;;;;;;;;;5049467;28;20203;-61
2021/05/05 06:48:11;;;;;;;3.97;3.60;;;;;;;;;;5027243;28;20234;-62
2021/05/05 06:50:37;;;;;;;3.90;3.50;;;;;;;;;;5058015;28;20279;-63
2021/05/05 06:53:03;;;;;;;4.57;4.17;;;;;;;;;;5035582;28;20213;-61
2021/05/05 06:55:29;;;;;;;4.23;3.53;;;;;;;;;;5054981;28;20439;-62
2021/05/05 06:57:55;;;;;;;3.67;3.37;;;;;;;;;;5039171;28;20173;-62
2021/05/05 07:00:21;;;;;;;3.50;3.20;;;;;;;;;;5054224;28;20256;-63
2021/05/05 07:02:48;;;;;;;3.77;3.47;;;;;;;;;;5033256;28;20177;-63
2021/05/05 07:05:16;;;;;;;2.77;2.57;;;;;;;;;;5048261;28;20644;-62
2021/05/05 07:07:42;;;;;;;3.70;3.13;;;;;;;;;;5031252;28;20178;-63
2021/05/05 07:10:10;;;;;;;3.73;2.87;;;;;;;;;;5025892;28;20182;-63
2021/05/05 07:12:36;;;;;;;3.30;2.30;;;;;;;;;;5044855;28;20229;-62
2021/05/05 07:15:02;;;;;;;3.27;2.47;;;;;;;;;;5050236;28;20982;-64
2021/05/05 07:17:28;;;;;;;3.03;2.40;;;;;;;;;;5056877;28;20903;-62
2021/05/05 07:19:54;;;;;;;3.43;2.67;;;;;;;;;;5049262;28;20166;-63
2021/05/05 07:22:20;;;;;;;3.20;2.90;;;;;;;;;;5037182;28;20974;-62
2021/05/05 07:24:47;;;;;;;3.37;3.00;;;;;;;;;;5054328;28;20980;-65
2021/05/05 07:27:13;;;;;;;3.47;3.07;;;;;;;;;;5032245;28;20415;-62
2021/05/05 07:29:40;;;;;;;4.17;3.53;;;;;;;;;;5063395;28;20224;-63
2021/05/05 07:32:06;;;;;;;4.10;2.83;;;;;;;;;;5056275;28;20294;-63
2021/05/05 07:34:32;;;;;;;3.77;2.90;;;;;;;;;;5087289;28;20565;-64
2021/05/05 07:37:11;;;;;;;3.17;2.77;;;;;;;;;;5091044;28;20168;-63
2021/05/05 07:45:42;;;;;;;4.83;2.60;;;;;;;;;;5033523;28;20791;-61
2021/05/05 07:48:15;;;;;;;1.97;1.67;;;;;;;;;;5064903;28;20180;-64
2021/05/05 07:50:41;;;;;;;1.73;1.63;;;;;;;;;;5066574;28;20864;-61
2021/05/05 07:53:07;;;;;;;1.93;1.43;;;;;;;;;;5080692;28;20470;-62
2021/05/05 07:55:33;;;;;;;2.00;1.80;;;;;;;;;;5078605;28;20172;-62
2021/05/05 07:57:59;;;;;;;2.20;1.63;;;;;;;;;;5065046;28;20212;-64
2021/05/05 08:00:25;;;;;;;4.17;2.20;;;;;;;;;;5069904;28;20414;-61
2021/05/05 08:02:52;;;;;;;2.77;2.47;;;;;;;;;;5060126;28;20443;-62
2021/05/05 08:05:18;;;;;;;4.37;3.30;;;;;;;;;;5059818;28;20457;-62
2021/05/05 08:07:44;;;;;;;2.73;2.53;;;;;;;;;;5090092;28;20409;-63
2021/05/05 08:10:10;;;;;;;3.60;2.90;;;;;;;;;;5087409;28;20436;-64
2021/05/05 08:12:36;;;;;;;2.67;2.47;;;;;;;;;;5089570;28;20468;-63
2021/05/05 08:15:04;;;;;;;2.40;2.20;;;;;;;;;;5089593;28;20410;-64
2021/05/05 08:17:30;;;;;;;3.53;2.40;;;;;;;;;;5079889;28;20426;-63
2021/05/05 08:19:56;;;;;;;3.73;2.70;;;;;;;;;;5084420;28;20442;-63
2021/05/05 08:22:22;;;;;;;4.63;2.50;;;;;;;;;;5067260;28;20413;-63
2021/05/05 08:24:48;;;;;;;2.80;2.47;;;;;;;;;;5075883;28;20441;-65
2021/05/05 08:27:14;;;;;;;3.80;2.30;;;;;;;;;;5072369;28;20463;-63
2021/05/05 08:29:40;;;;;;;3.23;2.93;;;;;;;;;;5082439;28;20430;-63
2021/05/05 08:32:07;;;;;;;5.60;4.60;;;;;;;;;;5070507;28;20483;-63
2021/05/05 08:34:33;;;;;;;6.43;4.93;;;;;;;;;;5071937;28;20509;-62
2021/05/05 08:36:59;;;;;;;6.43;4.53;;;;;;;;;;5069942;28;20422;-65
2021/05/05 08:39:25;;;;;;;8.30;5.60;;;;;;;;;;5072787;28;20426;-66
2021/05/05 08:41:52;;;;;;;8.30;4.57;;;;;;;;;;5087247;28;20445;-63
2021/05/05 08:44:18;;;;;;;5.77;3.53;;;;;;;;;;5087222;28;20993;-64
2021/05/05 08:46:46;;;;;;;5.80;3.43;;;;;;;;;;5060355;28;20426;-63
2021/05/05 08:49:13;;;;;;;4.03;3.37;;;;;;;;;;5084871;28;20215;-63
2021/05/05 08:51:39;;;;;;;5.60;3.00;;;;;;;;;;5087047;28;20684;-64
2021/05/05 08:54:07;;;;;;;3.27;2.43;;;;;;;;;;5088909;28;20194;-63
2021/05/05 08:56:36;;;;;;;3.40;2.73;;;;;;;;;;5071857;28;20176;-64
2021/05/05 08:59:13;;;;;;;5.60;3.70;;;;;;;;;;5079867;28;20257;-63
2021/05/05 09:01:40;;;;;;;5.30;2.80;;;;;;;;;;5102374;28;20306;-65
2021/05/05 09:04:06;;;;;;;9.63;3.23;;;;;;;;;;5081259;28;20188;-63
2021/05/05 09:06:46;;;;;;;3.63;2.77;;;;;;;;;;5090348;28;20778;-64
2021/05/05 09:09:12;;;;;;;5.73;2.57;;;;;;;;;;5089201;28;20195;-62
2021/05/05 09:11:45;;;;;;;5.17;2.93;;;;;;;;;;5058362;28;20196;-63
2021/05/05 09:14:12;;;;;;;8.33;2.83;;;;;;;;;;5084097;28;20531;-64
2021/05/05 09:16:38;;;;;;;3.80;2.73;;;;;;;;;;5094437;28;20740;-63
2021/05/05 09:19:05;;;;;;;8.37;3.13;;;;;;;;;;5100309;28;20253;-63
2021/05/05 09:21:34;;;;;;;6.07;3.20;;;;;;;;;;5073940;28;20527;-63
2021/05/05 09:24:34;;;;;;;4.63;2.40;;;;;;;;;;5084888;28;20190;-64
2021/05/05 09:27:01;;;;;;;5.50;3.13;;;;;;;;;;5067235;28;20200;-64
2021/05/05 09:29:47;;;;;;;7.20;2.90;;;;;;;;;;5086193;28;20191;-63
2021/05/05 09:32:14;;;;;;;8.30;2.97;;;;;;;;;;5081675;28;20573;-62
2021/05/05 09:34:41;;;;;;;6.67;3.40;;;;;;;;;;5083008;28;20191;-67
2021/05/05 09:37:12;;;;;;;5.67;3.70;;;;;;;;;;5075601;28;20182;-63
2021/05/05 09:39:39;;;;;;;10.20;3.77;;;;;;;;;;5091895;28;20607;-63
2021/05/05 09:42:18;;;;;;;4.30;3.17;;;;;;;;;;5074771;28;20184;-63
2021/05/05 09:44:57;;;;;;;6.20;3.33;;;;;;;;;;5077649;28;20207;-63
2021/05/05 09:47:24;;;;;;;5.23;2.93;;;;;;;;;;5072816;28;20180;-63
2021/05/05 09:49:50;;;;;;;8.77;3.50;;;;;;;;;;5091422;28;20280;-66
2021/05/05 09:52:23;;;;;;;10.07;4.03;;;;;;;;;;5074268;28;20290;-63
2021/05/05 09:54:55;;;;;;;6.30;3.33;;;;;;;;;;5090354;28;20175;-62
2021/05/05 09:57:27;;;;;;;5.97;3.33;;;;;;;;;;5092872;28;20203;-62
2021/05/05 10:00:12;;;;;;;6.67;3.43;;;;;;;;;;5070581;28;20216;-63
2021/05/05 10:03:01;;;;;;;3.83;2.17;;;;;;;;;;5093635;28;20164;-64
2021/05/05 10:05:34;;;;;;;4.87;2.37;;;;;;;;;;5069143;28;20180;-62
2021/05/05 10:08:12;;;;;;;6.63;2.60;;;;;;;;;;5074162;28;20294;-62
2021/05/05 10:10:39;;;;;;;5.63;2.33;;;;;;;;;;5075200;28;20176;-62
2021/05/05 10:13:06;;;;;;;4.23;2.30;;;;;;;;;;5074446;28;20215;-62
2021/05/05 10:15:34;;;;;;;3.47;2.10;;;;;;;;;;5078090;28;20306;-63
2021/05/05 10:18:00;;;;;;;2.53;1.83;;;;;;;;;;5091336;28;20199;-63
2021/05/05 10:20:28;;;;;;;3.27;1.87;;;;;;;;;;5076815;28;20188;-64
2021/05/05 10:22:55;;;;;;;1.47;1.33;;;;;;;;;;5092943;28;20168;-64
2021/05/05 10:25:22;;;;;;;2.37;1.43;;;;;;;;;;5081899;28;20653;-63
2021/05/05 10:27:48;;;;;;;1.37;1.10;;;;;;;;;;5069027;28;20222;-64
2021/05/05 10:30:15;;;;;;;1.10;1.07;;;;;;;;;;5088006;28;20625;-63
2021/05/05 10:32:42;;;;;;;1.10;1.00;;;;;;;;;;5075749;28;20259;-64
2021/05/05 10:35:09;;;;;;;3.27;1.87;;;;;;;;;;5080383;28;20618;-64
2021/05/05 10:37:47;;;;;;;3.00;1.80;;;;;;;;;;5074354;28;20172;-65
2021/05/05 10:40:14;;;;;;;3.77;2.10;;;;;;;;;;5085936;28;20191;-66
2021/05/05 10:42:48;;;;;;;4.33;2.73;;;;;;;;;;5063251;28;20181;-66
2021/05/05 10:45:26;;;;;;;3.97;2.33;;;;;;;;;;5089093;28;20245;-67
2021/05/05 10:48:07;;;;;;;4.57;3.60;;;;;;;;;;5081186;28;20535;-67
2021/05/05 10:50:50;;;;;;;5.47;4.13;;;;;;;;;;5084190;28;20632;-67
2021/05/05 10:53:16;;;;;;;3.83;2.80;;;;;;;;;;5075811;28;20214;-68
2021/05/05 10:55:44;;;;;;;5.07;3.37;;;;;;;;;;5074660;28;20192;-66
2021/05/05 10:58:11;;;;;;;4.93;3.40;;;;;;;;;;5092378;28;20176;-66
2021/05/05 11:00:45;;;;;;;3.27;2.77;;;;;;;;;;5086597;28;20172;-66
2021/05/05 11:03:11;;;;;;;4.60;3.10;;;;;;;;;;5073439;28;20424;-68
2021/05/05 11:05:38;;;;;;;3.30;2.60;;;;;;;;;;5082513;28;20899;-66
2021/05/05 11:08:06;;;;;;;5.50;2.57;;;;;;;;;;5068795;28;20320;-66
2021/05/05 11:10:37;;;;;;;6.47;2.43;;;;;;;;;;5075743;28;20179;-67
2021/05/05 11:13:19;;;;;;;6.93;2.40;;;;;;;;;;5060713;28;20658;-67
2021/05/05 11:15:45;;;;;;;5.50;2.60;;;;;;;;;;5087780;28;20267;-66
2021/05/05 11:21:06;;;;;;;4.73;2.03;;;;;;;;;;5092179;28;20206;-67
2021/05/05 11:23:36;;;;;;;4.37;2.43;;;;;;;;;;5069417;28;20266;-68
2021/05/05 11:26:14;;;;;;;4.73;2.53;;;;;;;;;;5071962;28;20604;-69
2021/05/05 11:28:55;;;;;;;5.57;2.57;;;;;;;;;;5076794;28;20650;-66
2021/05/05 11:31:21;;;;;;;6.90;1.80;;;;;;;;;;5088907;28;20211;-66
2021/05/05 11:33:57;;;;;;;2.40;1.70;;;;;;;;;;5062028;28;20183;-66
2021/05/05 11:36:23;;;;;;;5.13;1.40;;;;;;;;;;5087420;28;20642;-65
2021/05/05 11:38:49;;;;;;;2.87;1.90;;;;;;;;;;5075946;28;20188;-68
2021/05/05 11:41:20;;;;;;;4.40;1.50;;;;;;;;;;5080012;28;20185;-66
2021/05/05 11:43:46;;;;;;;5.77;1.57;;;;;;;;;;5080601;28;20247;-67
2021/05/05 11:46:12;;;;;;;6.93;1.77;;;;;;;;;;5079514;28;20172;-67
2021/05/05 11:48:39;;;;;;;3.63;1.53;;;;;;;;;;5085571;28;20536;-66
2021/05/05 11:51:15;;;;;;;5.07;1.80;;;;;;;;;;5082489;28;20204;-66
2021/05/05 11:53:41;;;;;;;3.70;1.53;;;;;;;;;;5078550;28;20171;-66
2021/05/05 11:56:20;;;;;;;3.10;1.73;;;;;;;;;;5088662;28;20701;-66
2021/05/05 11:58:56;;;;;;;2.30;1.43;;;;;;;;;;5076718;28;20735;-66
2021/05/05 12:01:30;;;;;;;1.93;1.47;;;;;;;;;;5069881;28;20207;-67
2021/05/05 12:04:15;;;;;;;3.00;1.47;;;;;;;;;;5063056;28;20639;-66
2021/05/05 12:06:48;;;;;;;3.40;1.57;;;;;;;;;;5087916;28;20195;-66
2021/05/05 12:09:21;;;;;;;4.17;1.60;;;;;;;;;;5081281;28;20176;-66
2021/05/05 12:11:47;;;;;;;3.17;1.90;;;;;;;;;;5089611;28;20306;-65
2021/05/05 12:14:27;;;;;;;5.73;2.37;;;;;;;;;;5083294;28;20179;-66
2021/05/05 12:16:56;;;;;;;4.60;1.90;;;;;;;;;;5090410;28;20570;-66
2021/05/05 12:19:22;;;;;;;3.07;1.60;;;;;;;;;;5083994;28;20526;-64
2021/05/05 12:21:48;;;;;;;1.77;1.40;;;;;;;;;;5079091;28;20188;-66
2021/05/05 12:24:14;;;;;;;5.80;1.70;;;;;;;;;;5076798;28;20173;-65
2021/05/05 12:26:40;;;;;;;3.37;1.37;;;;;;;;;;5052407;28;20215;-66
2021/05/05 12:29:07;;;;;;;2.37;1.67;;;;;;;;;;5080051;28;20627;-65
2021/05/05 12:31:35;;;;;;;3.20;1.63;;;;;;;;;;5071026;28;20219;-65
2021/05/05 12:34:03;;;;;;;2.40;1.43;;;;;;;;;;5067204;28;20180;-65
2021/05/05 12:36:42;;;;;;;3.87;1.60;;;;;;;;;;5081197;28;20196;-64
2021/05/05 12:39:12;;;;;;;2.17;1.13;;;;;;;;;;5072829;28;20290;-66
2021/05/05 12:41:43;;;;;;;2.77;1.77;;;;;;;;;;5080118;28;20184;-66
2021/05/05 12:44:09;;;;;;;6.77;1.77;;;;;;;;;;5068439;28;20634;-66
2021/05/05 12:46:55;;;;;;;3.07;1.30;;;;;;;;;;5072835;28;20176;-65
2021/05/05 12:49:33;;;;;;;2.17;1.60;;;;;;;;;;5089024;28;20203;-65
2021/05/05 12:51:59;;;;;;;6.00;1.93;;;;;;;;;;5078154;28;20272;-64
2021/05/05 12:54:28;;;;;;;2.70;1.40;;;;;;;;;;5092376;28;20179;-66
2021/05/05 12:56:55;;;;;;;4.27;1.87;;;;;;;;;;5068034;28;20586;-64
2021/05/05 12:59:31;;;;;;;2.37;2.10;;;;;;;;;;5074899;28;20183;-65
2021/05/05 13:02:08;;;;;;;3.47;1.40;;;;;;;;;;5086982;28;20176;-65
2021/05/05 13:04:37;;;;;;;3.90;1.43;;;;;;;;;;5075881;28;20184;-65
2021/05/05 13:07:03;;;;;;;3.57;1.73;;;;;;;;;;5075068;28;20181;-65
2021/05/05 13:09:31;;;;;;;2.87;1.20;;;;;;;;;;5081642;28;20557;-64
2021/05/05 13:12:16;;;;;;;7.37;2.67;;;;;;;;;;5082246;28;20658;-65
2021/05/05 13:17:46;;;;;;;3.23;1.47;;;;;;;;;;5091323;28;20269;-65
2021/05/05 13:25:44;;;;;;;2.93;1.73;;;;;;;;;;5076297;28;20676;-65
2021/05/05 13:31:43;;;;;;;2.57;1.47;;;;;;;;;;5091180;28;21105;-65
2021/05/05 13:34:11;;;;;;;2.57;1.50;;;;;;;;;;5091901;28;20169;-64
2021/05/05 13:36:51;;;;;;;2.43;1.43;;;;;;;;;;5094098;28;20590;-64
2021/05/05 13:39:17;;;;;;;4.40;2.13;;;;;;;;;;5082654;28;20270;-64
2021/05/05 13:41:44;;;;;;;2.70;1.83;;;;;;;;;;5092890;28;20350;-64
2021/05/05 13:44:19;;;;;;;6.13;1.97;;;;;;;;;;5080770;28;20514;-64
2021/05/05 13:51:37;;;;;;;1.80;1.60;;;;;;;;;;5084135;28;20208;-65
2021/05/05 13:54:03;;;;;;;5.27;1.80;;;;;;;;;;5082373;28;20245;-64
2021/05/05 13:56:30;;;;;;;3.30;1.80;;;;;;;;;;5073306;28;20188;-66
2021/05/05 13:58:57;;;;;;;5.07;1.87;;;;;;;;;;5083958;28;20581;-65
2021/05/05 14:01:23;;;;;;;2.53;1.87;;;;;;;;;;5077952;28;20165;-65
2021/05/05 14:03:49;;;;;;;4.43;2.00;;;;;;;;;;5084627;28;20397;-64
2021/05/05 14:06:16;;;;;;;3.93;2.03;;;;;;;;;;5070074;28;20175;-66
2021/05/05 14:08:42;;;;;;;4.73;1.47;;;;;;;;;;5086210;28;20705;-64
2021/05/05 14:11:09;;;;;;;3.50;1.70;;;;;;;;;;5084283;28;20210;-65
2021/05/05 14:13:35;;;;;;;2.27;1.50;;;;;;;;;;5087681;28;20203;-66
2021/05/05 14:16:02;;;;;;;4.03;1.50;;;;;;;;;;5089054;28;20168;-65
2021/05/05 14:18:28;;;;;;;3.37;1.77;;;;;;;;;;5077628;28;20277;-65
2021/05/05 14:20:55;;;;;;;8.23;2.07;;;;;;;;;;5070924;28;20179;-65
2021/05/05 14:23:21;;;;;;;2.70;2.17;;;;;;;;;;5080144;28;20694;-65
2021/05/05 14:25:49;;;;;;;7.13;1.97;;;;;;;;;;5088192;28;20536;-64
2021/05/05 14:28:15;;;;;;;6.30;2.00;;;;;;;;;;5077273;28;20258;-65
2021/05/05 14:30:41;;;;;;;3.67;1.80;;;;;;;;;;5069405;28;20434;-65
2021/05/05 14:33:07;;;;;;;5.40;2.10;;;;;;;;;;5088583;28;20954;-65
2021/05/05 14:35:34;;;;;;;3.83;1.90;;;;;;;;;;5070240;28;20543;-65
2021/05/05 14:38:17;;;;;;;3.83;1.87;;;;;;;;;;5081208;28;20237;-66
2021/05/05 14:40:45;;;;;;;3.93;2.30;;;;;;;;;;5077391;28;20168;-66
2021/05/05 14:48:35;;;;;;;6.13;2.10;;;;;;;;;;5049465;28;20206;-67
2021/05/05 14:51:01;;;;;;;6.27;3.10;;;;;;;;;;5090144;28;20554;-66
2021/05/05 14:53:28;;;;;;;4.17;2.07;;;;;;;;;;5063962;28;20621;-66
2021/05/05 14:55:55;;;;;;;5.03;2.50;;;;;;;;;;5087501;28;20527;-66
2021/05/05 14:58:26;;;;;;;5.77;2.17;;;;;;;;;;5068528;28;20258;-66
2021/05/05 15:00:52;;;;;;;6.23;2.13;;;;;;;;;;5066915;28;20175;-66
2021/05/05 15:03:21;;;;;;;4.80;2.33;;;;;;;;;;5063844;28;20179;-65
2021/05/05 15:05:48;;;;;;;5.53;2.00;;;;;;;;;;5070829;28;20641;-66
2021/05/05 15:08:20;;;;;;;5.80;2.40;;;;;;;;;;5088195;28;20182;-66
2021/05/05 15:30:02;;;;;;;4.63;2.10;;;;;;;;;;5079542;28;20215;-65
2021/05/05 15:42:56;;;;;;;5.43;1.67;;;;;;;;;;5087070;28;20191;-66
2021/05/05 15:45:28;;;;;;;2.67;1.30;;;;;;;;;;5079528;28;20180;-67
2021/05/05 15:47:55;;;;;;;4.73;1.80;;;;;;;;;;5078984;28;20184;-65